• Join FlightAware (Why Join?)
  • Login
  • US Flag 
07:27AM EDT


 

Airport Tracker/Info


-or-


 

Live Flight TrackerFlight Track Log ✈ OPT330 ✈ 06-May-2014 ✈ KIAD - KJZI

Flight Track Log - Related Links

Times and Time Zones

All times are in EDT time to prevent confusion due to time zone crossing. See the OPT330 flight status page for this flight to view local times or setup timezone preferences in your user account.

Time Position Orientation Groundspeed Altitude Reporting Facility
EDT Latitude Longitude Course Direction KTS MPH feet Rate Location/Type
11:15AM 38.9189 -77.5251 237° Southwest 226 260 3,800  Level FlightAware ADS-B (KDAA)
11:15AM 38.9095 -77.5433 237° Southwest 251 289 4,600 1,980 Climbing FlightAware ADS-B (KDAA)
11:15AM 38.9004 -77.5602 235° Southwest 257 296 4,800 660 Climbing FlightAware ADS-B (KDAA)
11:15AM 38.8855 -77.5868 234° Southwest 257 296 5,000 300 Climbing FlightAware ADS-B (KDAA)
11:16AM 38.8737 -77.6073 234° Southwest 261 300 5,000  Level FlightAware ADS-B (KDAA)
11:16AM 38.8611 -77.6292 234° Southwest 261 300 5,000  Level FlightAware ADS-B (KDAA)
11:16AM 38.8467 -77.6539 234° Southwest 261 300 5,000 660 Level FlightAware ADS-B (KDAA)
11:17AM 38.8312 -77.6805 234° Southwest 265 305 5,400 1,860 Climbing FlightAware ADS-B (KDAA)
11:17AM 38.8283 -77.6854 234° Southwest 267 307 5,600 2,280 Climbing FlightAware ADS-B (KDCA)
11:17AM 38.8222 -77.6957 234° Southwest 265 305 5,900 2,400 Climbing FlightAware ADS-B (KDAA)
11:17AM 38.8115 -77.7136 233° Southwest 271 312 6,500 1,860 Climbing FlightAware ADS-B (KDCA)
11:17AM 38.7952 -77.7381 221° Southwest 289 333 6,900 1,020 Climbing FlightAware ADS-B (KDCA)
11:18AM 38.7705 -77.7560 201° Southwest 310 357 7,200 1,260 Climbing FlightAware ADS-B (KDCA)
11:18AM 38.7601 -77.7587 204° Southwest 311 358 7,500 2,820 Climbing FlightAware ADS-B (KDAA)
11:18AM 38.7458 -77.7577 171° South 307 353 8,100 3,240 Climbing FlightAware ADS-B (KDAA)
11:18AM 38.7299 -77.7508 156° South 316 364 8,700 3,120 Climbing FlightAware ADS-B (KDAA)
11:18AM 38.7155 -77.7427 156° South 326 375 9,200 2,760 Climbing FlightAware ADS-B (KDCA)
11:18AM 38.7140 -77.7419 156° South 326 375 9,400 3,000 Climbing FlightAware ADS-B (KDAA)
11:19AM 38.6581 -77.7118 156° South 347 399 11,200 3,120 Climbing FlightAware ADS-B (KDAA)
11:19AM 38.6553 -77.7103 156° South 347 399 11,300 3,600 Climbing FlightAware ADS-B (KDCA)
11:20AM 38.6211 -77.6911 156° South 347 399 12,900 3,420 Climbing FlightAware ADS-B (KDAA)
11:20AM 38.5675 -77.6611 156° South 353 406 14,700 3,540 Climbing FlightAware ADS-B (KDAA)
11:21AM 38.5282 -77.6392 156° South 348 400 16,600 3,600 Climbing FlightAware ADS-B (KDAA)
11:21AM 38.4779 -77.6112 156° South 355 409 18,300 3,240 Climbing FlightAware ADS-B (KDCA)
11:21AM 38.4480 -77.5996 169° South 347 399 19,300 2,400 Climbing FlightAware ADS-B (KDAA)
11:22AM 38.4291 -77.5982 181° South 339 390 19,900 3,060 Climbing FlightAware ADS-B (KDAA)
11:22AM 38.3926 -77.6069 200° South 324 373 21,100 4,200 Climbing FlightAware ADS-B (KDAA)
11:22AM 38.3864 -77.6100 203° Southwest 322 371 21,300 2,820 Climbing FlightAware ADS-B (KDCA)
11:22AM 38.3691 -77.6218 214° Southwest 310 357 22,100 2,760 Climbing FlightAware ADS-B (KDAA)
11:23AM 38.3408 -77.6546 231° Southwest 297 342 23,200 2,520 Climbing FlightAware ADS-B (KDCA)
11:23AM 38.3059 -77.7088 230° Southwest 308 354 24,800 2,460 Climbing FlightAware ADS-B (KDCA)
11:24AM 38.2730 -77.7584 230° Southwest 299 344 26,300 2,460 Climbing FlightAware ADS-B (KDAA)
11:24AM 38.2682 -77.7657 231° Southwest 317 365 26,500 2,040 Climbing FlightAware ADS-B (KDCA)
11:24AM 38.2492 -77.7947 231° Southwest 321 369 27,300 2,460 Climbing FlightAware ADS-B (KDAA)
11:25AM 38.2179 -77.8423 231° Southwest 320 368 28,700 2,460 Climbing FlightAware ADS-B (KDAA)
11:25AM 38.1930 -77.8802 231° Southwest 327 376 29,600 2,400 Climbing FlightAware ADS-B (KDAA)
11:26AM 38.1715 -77.9129 231° Southwest 325 374 30,600 2,880 Climbing FlightAware ADS-B (KDCA)
11:26AM 38.1581 -77.9333 231° Southwest 323 372 31,300 2,580 Climbing FlightAware ADS-B (KDAA)
11:26AM 38.1326 -77.9721 231° Southwest 320 368 32,400 1,500 Climbing FlightAware ADS-B (KDCA)
11:27AM 38.0947 -78.0303 231° Southwest 345 397 33,000 600 Climbing FlightAware ADS-B (KDCA)
11:27AM 38.0814 -78.0505 229° Southwest 359 413 33,000  Level FlightAware ADS-B (KCHO)
11:28AM 38.0217 -78.1157 220° Southwest 395 455 33,000  Level FlightAware ADS-B (KCHO)
11:29AM 37.9770 -78.1639 221° Southwest 406 467 33,000  Level FlightAware ADS-B (KCHO)
11:29AM 37.9409 -78.2036 221° Southwest 412 474 33,000  Level FlightAware ADS-B (KCHO)
11:30AM 37.8875 -78.2631 222° Southwest 417 480 33,000 180 Level FlightAware ADS-B (KCHO)
11:30AM 37.8438 -78.3124 222° Southwest 419 482 33,200 1,200 Climbing FlightAware ADS-B (KCHO)
11:30AM 37.8171 -78.3422 222° Southwest 418 481 34,000 2,760 Climbing FlightAware ADS-B (KDCA)
11:31AM 37.7893 -78.3663 210° Southwest 403 464 35,000 2,940 Climbing FlightAware ADS-B (KCHO)
11:31AM 37.7301 -78.4020 206° Southwest 380 437 36,600 3,000 Climbing FlightAware ADS-B (KDCA)
11:32AM 37.7096 -78.4140 205° Southwest 371 427 37,700 2,880 Climbing FlightAware ADS-B (KCHO)
11:32AM 37.6730 -78.4359 205° Southwest 353 406 38,900 2,040 Climbing FlightAware ADS-B (KCHO)
11:33AM 37.5813 -78.4905 206° Southwest 346 398 40,400 1,440 Climbing FlightAware ADS-B (KDCA)
11:34AM 37.5129 -78.5309 205° Southwest 344 396 41,300 1,140 Climbing FlightAware ADS-B (KDCA)
11:34AM 37.4549 -78.5647 205° Southwest 339 390 42,100 1,380 Climbing FlightAware ADS-B (KDCA)
11:35AM 37.4109 -78.5903 205° Southwest 332 382 43,000 600 Climbing FlightAware ADS-B (KDCA)
11:36AM 37.3269 -78.6395 206° Southwest 344 396 43,000  Level FlightAware ADS-B (KDCA)
11:37AM 37.2561 -78.6809 205° Southwest 371 427 43,000  Level FlightAware ADS-B (KDCA)
11:38AM 37.0860 -78.7791 205° Southwest 398 458 43,000  Level FlightAware ADS-B (KDCA)
11:39AM 36.9992 -78.8269 205° Southwest 397 457 43,000  Level Washington Center
11:40AM 36.8911 -78.8900 205° Southwest 413 475 43,000  Level Washington Center
11:41AM 36.7872 -78.9478 204° Southwest 418 481 43,000  Level Washington Center
11:42AM 36.6878 -78.9928 200° South 423 487 43,000  Level Washington Center
11:43AM 36.5544 -78.9844 177° South 425 489 43,000  Level Washington Center
11:47AM 36.1349 -78.9051 175° South 427 491 43,000  Level FlightAware ADS-B (KJNX)
11:49AM 35.9329 -78.8860 175° South 426 490 43,000  Level FlightAware ADS-B (KJNX)
11:50AM 35.8319 -78.8766 175° South 423 487 43,000  Level FlightAware ADS-B (KJNX)
11:51AM 35.7524 -78.8691 175° South 422 486 43,000  Level FlightAware ADS-B (KJNX)
11:52AM 35.6336 -78.8579 175° South 420 483 43,000  Level FlightAware ADS-B (KJNX)
11:52AM 35.5322 -78.8484 175° South 419 482 43,000  Level FlightAware ADS-B (KJNX)
11:53AM 35.4668 -78.8422 175° South 419 482 43,000  Level FlightAware ADS-B (KJNX)
11:54AM 35.4126 -78.8372 175° South 418 481 43,000 -420 Level FlightAware ADS-B (KJNX)
11:54AM 35.3666 -78.8330 175° South 429 494 42,500 -1,740 Descending FlightAware ADS-B (KJNX)
11:55AM 35.2646 -78.8235 175° South 442 509 40,600 -2,820 Descending FlightAware ADS-B (KJNX)
11:56AM 35.1851 -78.8160 175° South 435 501 38,700 -2,520 Descending FlightAware ADS-B (KJNX)
11:56AM 35.1215 -78.8101 175° South 435 501 37,500 -2,220 Descending FlightAware ADS-B (KJNX)
11:57AM 35.0093 -78.7998 175° South 441 507 35,400 -3,240 Descending FlightAware ADS-B (KJNX)
11:58AM 34.7219 -78.7758 175° South 447 514 30,200 -2,700 Descending Washington Center
12:00PM 34.5483 -78.8014 187° South 433 498 28,000 -960 Descending Jacksonville Center
12:01PM 34.4489 -78.8892 216° Southwest 419 482 28,000 -360 Level Jacksonville Center
12:02PM 34.3428 -78.9694 212° Southwest 431 496 27,300 -1,320 Descending Jacksonville Center
12:03PM 34.2367 -79.0397 209° Southwest 445 512 25,400 -1,980 Descending Jacksonville Center
12:04PM 34.1214 -79.0900 200° South 445 512 23,400 -1,860 Descending Jacksonville Center
12:05PM 34.0122 -79.1372 200° South 434 499 21,700 -1,740 Descending Jacksonville Center
12:06PM 33.9092 -79.1842 201° Southwest 420 483 20,000 -1,740 Descending Jacksonville Center
12:07PM 33.8042 -79.2336 201° Southwest 413 475 18,300 -1,740 Descending Jacksonville Center
12:08PM 33.7122 -79.2972 210° Southwest 401 461 16,600 -1,680 Descending Jacksonville Center
12:09PM 33.6344 -79.3553 212° Southwest 379 436 15,000 -1,680 Descending Jacksonville Center
12:10PM 33.5425 -79.4239 212° Southwest 384 442 13,300 -1,740 Descending Jacksonville Center
12:11PM 33.4586 -79.4844 211° Southwest 374 430 11,600 -1,200 Descending Jacksonville Center
12:12PM 33.3767 -79.5472 213° Southwest 361 415 11,000 -780 Descending Jacksonville Center
12:13PM 33.2989 -79.6047 212° Southwest 349 402 10,100 -1,200 Descending Jacksonville Center
12:14PM 33.2356 -79.6542 213° Southwest 311 358 8,700 -1,440 Descending Jacksonville Center
12:15PM 33.1589 -79.6694 189° South 268 308 7,300 -1,440 Descending Jacksonville Center
12:16PM 33.0833 -79.6622 175° South 273 314 5,900 -1,440 Descending Jacksonville Center
12:17PM 32.9978 -79.6556 176° South 273 314 4,500 -1,440 Descending Jacksonville Center
12:18PM 32.9361 -79.6947 208° Southwest 245 282 3,100 -780 Descending Jacksonville Center
12:19PM 32.8875 -79.7558 227° Southwest 245 282 3,000 -240 Descending Jacksonville Center
12:20PM 32.8386 -79.8094 223° Southwest 245 282 2,700 -300 Descending Jacksonville Center